Wilson Gdynia — 8PSA — position and weather

sailwx.info

Track history (hours):
 
Tides and Currents Weather Stations Pressure Air Temp Water Temp Dewpoint Dewpoint Depression Visibility Wind Speed Wind Dir Waves Ship Positions

Wilson Gdynia

Last reported at 2014-Aug-30 22:24 UTC. Time now 2014-Aug-31 08:35 UTC.
Position N 34°12' E 011°35'.

Length 88 m; draft 3.2 m.

Type: Cargo ship. MMSI: 314192000.

Date/timePositionNaut miles runAvg speedWind from/ knotsBaromVisibWave heightAir tempDewpointWater temp
2014-Aug-30 22:24N 34°12' E 011°35'26 6.6
2014-Aug-30 18:28N 34°36' E 011°47'6 6.6
2014-Aug-30 17:33N 34°42' E 011°49'7 6.9
2014-Aug-30 16:33N 34°48' E 011°52'7 6.8
2014-Aug-30 15:33N 34°55' E 011°52'7 6.9
2014-Aug-30 14:33N 35°02' E 011°50'7 7.0
2014-Aug-30 13:33N 35°09' E 011°49'7 7.0
2014-Aug-30 12:33N 35°16' E 011°47'14 7.0
2014-Aug-30 10:29N 35°30' E 011°45'16 6.9
2014-Aug-30 08:06N 35°46' E 011°41'4 7.5
2014-Aug-30 07:33N 35°50' E 011°39'9 7.9
2014-Aug-30 06:27N 35°59' E 011°37'7 7.7
2014-Aug-30 05:33N 36°06' E 011°37'8 8.0
2014-Aug-30 04:32N 36°14' E 011°36'10 7.9
2014-Aug-30 03:20N 36°23' E 011°34'6 8.0
2014-Aug-30 02:33N 36°29' E 011°33'8 8.2
2014-Aug-30 01:33N 36°37' E 011°33'8 8.2
2014-Aug-30 00:33N 36°46' E 011°32'8 8.4
2014-Aug-29 23:33N 36°54' E 011°31'8 8.2
2014-Aug-29 22:33N 37°02' E 011°30'8 8.2
2014-Aug-29 21:32N 37°10' E 011°29'372 9.1
2014-Aug-28 04:33N 43°11' E 009°26'9 8.6
2014-Aug-28 03:33N 43°18' E 009°20'9 8.6
2014-Aug-28 02:33N 43°26' E 009°14'9 8.7
2014-Aug-28 01:33N 43°33' E 009°08'9 9.0
2014-Aug-28 00:33N 43°41' E 009°02'9 9.0
2014-Aug-27 23:33N 43°48' E 008°55'9 8.9
2014-Aug-27 22:33N 43°56' E 008°49'9 9.0
2014-Aug-27 21:33N 44°04' E 008°43'9 8.8
2014-Aug-27 20:32N 44°12' E 008°37'9 8.7
2014-Aug-27 19:33N 44°19' E 008°31'1 0.2
2014-Aug-27 14:26N 44°19' E 008°29'0 0.0
2014-Aug-27 04:29N 44°19' E 008°30'5 5.1
2014-Aug-27 03:32N 44°14' E 008°31'8 7.6
2014-Aug-27 02:32N 44°07' E 008°30'8 7.4
2014-Aug-27 01:26N 43°59' E 008°29'82 7.6
2014-Aug-26 14:33N 42°37' E 008°18'9 8.1
2014-Aug-26 13:28N 42°28' E 008°17'49 8.2
2014-Aug-26 07:27N 41°39' E 008°10'10 9.4
2014-Aug-26 06:24N 41°29' E 008°08'72 8.9
2014-Aug-25 22:19N 40°17' E 008°06'8 8.3
2014-Aug-25 21:20N 40°09' E 008°08'15 8.5
2014-Aug-25 19:32N 39°54' E 008°10'7 6.5
2014-Aug-25 18:27N 39°49' E 008°17'  
2014-Aug-23 01:26N 39°52' E 008°33'0 0.0
2014-Aug-23 00:32N 39°52' E 008°33'0 0.0
2014-Aug-22 23:32N 39°52' E 008°33'0 0.0
2014-Aug-22 22:29N 39°52' E 008°33'0 0.0
2014-Aug-22 21:23N 39°52' E 008°33'0 0.0
2014-Aug-22 19:08N 39°52' E 008°33'0 0.0
2014-Aug-22 18:26N 39°52' E 008°33'  
Track history (hours):
 
Tides and Currents Weather Stations Pressure Air Temp Water Temp Dewpoint Dewpoint Depression Visibility Wind Speed Wind Dir Waves Ship Positions

Wilson Gdynia

Last reported at 2014-Aug-30 22:24 UTC. Time now 2014-Aug-31 08:35 UTC.
Position N 34°12' E 011°35'.

Length 88 m; draft 3.2 m.

Type: Cargo ship. MMSI: 314192000.

Date/timePositionNaut miles runAvg speedWind from/ knotsBaromVisibWave heightAir tempDewpointWater temp
2014-Aug-30 22:24N 34°12' E 011°35'26 6.6
2014-Aug-30 18:28N 34°36' E 011°47'6 6.6
2014-Aug-30 17:33N 34°42' E 011°49'7 6.9
2014-Aug-30 16:33N 34°48' E 011°52'7 6.8
2014-Aug-30 15:33N 34°55' E 011°52'7 6.9
2014-Aug-30 14:33N 35°02' E 011°50'7 7.0
2014-Aug-30 13:33N 35°09' E 011°49'7 7.0
2014-Aug-30 12:33N 35°16' E 011°47'14 7.0
2014-Aug-30 10:29N 35°30' E 011°45'16 6.9
2014-Aug-30 08:06N 35°46' E 011°41'4 7.5
2014-Aug-30 07:33N 35°50' E 011°39'9 7.9
2014-Aug-30 06:27N 35°59' E 011°37'7 7.7
2014-Aug-30 05:33N 36°06' E 011°37'8 8.0
2014-Aug-30 04:32N 36°14' E 011°36'10 7.9
2014-Aug-30 03:20N 36°23' E 011°34'6 8.0
2014-Aug-30 02:33N 36°29' E 011°33'8 8.2
2014-Aug-30 01:33N 36°37' E 011°33'8 8.2
2014-Aug-30 00:33N 36°46' E 011°32'8 8.4
2014-Aug-29 23:33N 36°54' E 011°31'8 8.2
2014-Aug-29 22:33N 37°02' E 011°30'8 8.2
2014-Aug-29 21:32N 37°10' E 011°29'372 9.1
2014-Aug-28 04:33N 43°11' E 009°26'9 8.6
2014-Aug-28 03:33N 43°18' E 009°20'9 8.6
2014-Aug-28 02:33N 43°26' E 009°14'9 8.7
2014-Aug-28 01:33N 43°33' E 009°08'9 9.0
2014-Aug-28 00:33N 43°41' E 009°02'9 9.0
2014-Aug-27 23:33N 43°48' E 008°55'9 8.9
2014-Aug-27 22:33N 43°56' E 008°49'9 9.0
2014-Aug-27 21:33N 44°04' E 008°43'9 8.8
2014-Aug-27 20:32N 44°12' E 008°37'9 8.7
2014-Aug-27 19:33N 44°19' E 008°31'1 0.2
2014-Aug-27 14:26N 44°19' E 008°29'0 0.0
2014-Aug-27 04:29N 44°19' E 008°30'5 5.1
2014-Aug-27 03:32N 44°14' E 008°31'8 7.6
2014-Aug-27 02:32N 44°07' E 008°30'8 7.4
2014-Aug-27 01:26N 43°59' E 008°29'82 7.6
2014-Aug-26 14:33N 42°37' E 008°18'9 8.1
2014-Aug-26 13:28N 42°28' E 008°17'49 8.2
2014-Aug-26 07:27N 41°39' E 008°10'10 9.4
2014-Aug-26 06:24N 41°29' E 008°08'72 8.9
2014-Aug-25 22:19N 40°17' E 008°06'8 8.3
2014-Aug-25 21:20N 40°09' E 008°08'15 8.5
2014-Aug-25 19:32N 39°54' E 008°10'7 6.5
2014-Aug-25 18:27N 39°49' E 008°17'  
2014-Aug-23 01:26N 39°52' E 008°33'0 0.0
2014-Aug-23 00:32N 39°52' E 008°33'0 0.0
2014-Aug-22 23:32N 39°52' E 008°33'0 0.0
2014-Aug-22 22:29N 39°52' E 008°33'0 0.0
2014-Aug-22 21:23N 39°52' E 008°33'0 0.0
2014-Aug-22 19:08N 39°52' E 008°33'0 0.0
2014-Aug-22 18:26N 39°52' E 008°33'  

Dump ship's entire track history